sensor_id;sensor_type;location;lat;lon;timestamp;pressure;altitude;pressure_sealevel;temperature;humidity
29935;BME280;19905;53.370;-6.314;2023-05-14T00:00:10;101922.69;;;13.17;100.00
29935;BME280;19905;53.370;-6.314;2023-05-14T00:02:38;101916.53;;;13.16;100.00
29935;BME280;19905;53.370;-6.314;2023-05-14T00:05:08;101918.13;;;13.19;100.00
29935;BME280;19905;53.370;-6.314;2023-05-14T00:07:36;101910.09;;;13.20;100.00
29935;BME280;19905;53.370;-6.314;2023-05-14T00:10:06;101911.03;;;13.19;100.00
29935;BME280;19905;53.370;-6.314;2023-05-14T00:12:35;101904.69;;;13.22;100.00
29935;BME280;19905;53.370;-6.314;2023-05-14T00:15:04;101898.81;;;13.17;100.00
29935;BME280;19905;53.370;-6.314;2023-05-14T00:17:35;101891.72;;;13.17;100.00
29935;BME280;19905;53.370;-6.314;2023-05-14T00:20:05;101884.25;;;13.10;100.00
29935;BME280;19905;53.370;-6.314;2023-05-14T00:22:35;101888.94;;;13.06;100.00
29935;BME280;19905;53.370;-6.314;2023-05-14T00:25:06;101885.66;;;13.03;100.00
29935;BME280;19905;53.370;-6.314;2023-05-14T00:27:35;101881.63;;;12.97;100.00
29935;BME280;19905;53.370;-6.314;2023-05-14T00:30:05;101884.59;;;12.92;100.00
29935;BME280;19905;53.370;-6.314;2023-05-14T00:32:35;101878.41;;;12.92;100.00
29935;BME280;19905;53.370;-6.314;2023-05-14T00:35:05;101865.25;;;12.90;100.00
29935;BME280;19905;53.370;-6.314;2023-05-14T00:37:34;101860.16;;;12.87;100.00
29935;BME280;19905;53.370;-6.314;2023-05-14T00:40:05;101860.16;;;12.87;100.00
29935;BME280;19905;53.370;-6.314;2023-05-14T00:42:34;101853.91;;;12.88;100.00
29935;BME280;19905;53.370;-6.314;2023-05-14T00:45:04;101848.50;;;12.90;100.00
29935;BME280;19905;53.370;-6.314;2023-05-14T00:47:32;101844.88;;;12.91;100.00
29935;BME280;19905;53.370;-6.314;2023-05-14T00:50:05;101833.44;;;12.90;100.00
29935;BME280;19905;53.370;-6.314;2023-05-14T00:52:35;101828.13;;;12.90;100.00
29935;BME280;19905;53.370;-6.314;2023-05-14T00:55:05;101827.16;;;12.91;100.00
29935;BME280;19905;53.370;-6.314;2023-05-14T00:57:34;101819.13;;;12.93;100.00
29935;BME280;19905;53.370;-6.314;2023-05-14T01:00:04;101813.72;;;12.94;100.00
29935;BME280;19905;53.370;-6.314;2023-05-14T01:02:33;101811.91;;;12.95;100.00
29935;BME280;19905;53.370;-6.314;2023-05-14T01:05:04;101810.31;;;12.92;100.00
29935;BME280;19905;53.370;-6.314;2023-05-14T01:07:38;101809.44;;;12.92;100.00
29935;BME280;19905;53.370;-6.314;2023-05-14T01:10:13;101813.06;;;12.91;100.00
29935;BME280;19905;53.370;-6.314;2023-05-14T01:12:49;101807.88;;;12.89;100.00
29935;BME280;19905;53.370;-6.314;2023-05-14T01:15:23;101800.97;;;12.87;100.00
29935;BME280;19905;53.370;-6.314;2023-05-14T01:17:55;101801.19;;;12.84;100.00
29935;BME280;19905;53.370;-6.314;2023-05-14T01:20:28;101803.19;;;12.80;100.00
29935;BME280;19905;53.370;-6.314;2023-05-14T01:22:58;101790.16;;;12.77;100.00
29935;BME280;19905;53.370;-6.314;2023-05-14T01:25:28;101790.38;;;12.74;100.00
29935;BME280;19905;53.370;-6.314;2023-05-14T01:28:01;101793.97;;;12.73;100.00
29935;BME280;19905;53.370;-6.314;2023-05-14T01:30:35;101792.38;;;12.70;100.00
29935;BME280;19905;53.370;-6.314;2023-05-14T01:33:06;101793.53;;;12.66;100.00
29935;BME280;19905;53.370;-6.314;2023-05-14T01:35:37;101785.59;;;12.66;100.00
29935;BME280;19905;53.370;-6.314;2023-05-14T01:38:10;101778.59;;;12.65;100.00
29935;BME280;19905;53.370;-6.314;2023-05-14T01:40:40;101781.00;;;12.68;100.00
29935;BME280;19905;53.370;-6.314;2023-05-14T01:43:09;101780.41;;;12.65;100.00
29935;BME280;19905;53.370;-6.314;2023-05-14T01:45:38;101775.94;;;12.65;100.00
29935;BME280;19905;53.370;-6.314;2023-05-14T01:48:07;101771.88;;;12.60;100.00
29935;BME280;19905;53.370;-6.314;2023-05-14T01:50:35;101779.84;;;12.60;100.00
29935;BME280;19905;53.370;-6.314;2023-05-14T01:53:04;101784.81;;;12.52;100.00
29935;BME280;19905;53.370;-6.314;2023-05-14T01:55:34;101787.56;;;12.50;100.00
29935;BME280;19905;53.370;-6.314;2023-05-14T01:58:03;101780.69;;;12.48;100.00
29935;BME280;19905;53.370;-6.314;2023-05-14T02:00:32;101779.91;;;12.45;100.00
29935;BME280;19905;53.370;-6.314;2023-05-14T02:03:00;101775.88;;;12.40;100.00
29935;BME280;19905;53.370;-6.314;2023-05-14T02:05:29;101779.69;;;12.36;100.00
29935;BME280;19905;53.370;-6.314;2023-05-14T02:07:58;101776.63;;;12.29;100.00
29935;BME280;19905;53.370;-6.314;2023-05-14T02:10:27;101771.31;;;12.29;100.00
29935;BME280;19905;53.370;-6.314;2023-05-14T02:12:57;101775.00;;;12.27;100.00
29935;BME280;19905;53.370;-6.314;2023-05-14T02:15:25;101772.59;;;12.24;100.00
29935;BME280;19905;53.370;-6.314;2023-05-14T02:17:54;101773.50;;;12.23;100.00
29935;BME280;19905;53.370;-6.314;2023-05-14T02:20:22;101770.13;;;12.20;100.00
29935;BME280;19905;53.370;-6.314;2023-05-14T02:22:51;101765.88;;;12.18;100.00
29935;BME280;19905;53.370;-6.314;2023-05-14T02:25:20;101775.41;;;12.20;100.00
29935;BME280;19905;53.370;-6.314;2023-05-14T02:27:48;101769.03;;;12.10;100.00
29935;BME280;19905;53.370;-6.314;2023-05-14T02:30:20;101771.78;;;12.09;100.00
29935;BME280;19905;53.370;-6.314;2023-05-14T02:32:49;101768.50;;;12.05;100.00
29935;BME280;19905;53.370;-6.314;2023-05-14T02:35:17;101760.84;;;12.01;100.00
29935;BME280;19905;53.370;-6.314;2023-05-14T02:37:47;101766.34;;;11.98;100.00
29935;BME280;19905;53.370;-6.314;2023-05-14T02:40:16;101768.88;;;11.99;100.00
29935;BME280;19905;53.370;-6.314;2023-05-14T02:42:45;101769.41;;;11.91;100.00
29935;BME280;19905;53.370;-6.314;2023-05-14T02:45:13;101769.69;;;11.87;100.00
29935;BME280;19905;53.370;-6.314;2023-05-14T02:47:43;101768.75;;;11.88;100.00
29935;BME280;19905;53.370;-6.314;2023-05-14T02:50:12;101771.47;;;11.86;100.00
29935;BME280;19905;53.370;-6.314;2023-05-14T02:52:41;101770.72;;;11.84;100.00
29935;BME280;19905;53.370;-6.314;2023-05-14T02:55:09;101771.56;;;11.85;100.00
29935;BME280;19905;53.370;-6.314;2023-05-14T02:57:38;101767.41;;;11.81;100.00
29935;BME280;19905;53.370;-6.314;2023-05-14T03:00:08;101768.47;;;11.78;100.00
29935;BME280;19905;53.370;-6.314;2023-05-14T03:02:37;101772.69;;;11.81;100.00
29935;BME280;19905;53.370;-6.314;2023-05-14T03:05:08;101767.81;;;11.75;100.00
29935;BME280;19905;53.370;-6.314;2023-05-14T03:07:37;101763.53;;;11.72;100.00
29935;BME280;19905;53.370;-6.314;2023-05-14T03:10:06;101765.16;;;11.75;100.00
29935;BME280;19905;53.370;-6.314;2023-05-14T03:12:35;101768.53;;;11.77;100.00
29935;BME280;19905;53.370;-6.314;2023-05-14T03:15:04;101763.91;;;11.80;100.00
29935;BME280;19905;53.370;-6.314;2023-05-14T03:17:33;101764.09;;;11.77;100.00
29935;BME280;19905;53.370;-6.314;2023-05-14T03:20:02;101760.81;;;11.74;100.00
29935;BME280;19905;53.370;-6.314;2023-05-14T03:22:31;101766.97;;;11.74;100.00
29935;BME280;19905;53.370;-6.314;2023-05-14T03:25:00;101760.91;;;11.72;100.00
29935;BME280;19905;53.370;-6.314;2023-05-14T03:27:28;101765.63;;;11.67;100.00
29935;BME280;19905;53.370;-6.314;2023-05-14T03:29:57;101764.59;;;11.69;100.00
29935;BME280;19905;53.370;-6.314;2023-05-14T03:32:26;101760.34;;;11.67;100.00
29935;BME280;19905;53.370;-6.314;2023-05-14T03:34:55;101760.34;;;11.67;100.00
29935;BME280;19905;53.370;-6.314;2023-05-14T03:37:24;101769.25;;;11.66;100.00
29935;BME280;19905;53.370;-6.314;2023-05-14T03:39:54;101768.09;;;11.70;100.00
29935;BME280;19905;53.370;-6.314;2023-05-14T03:42:22;101766.09;;;11.74;100.00
29935;BME280;19905;53.370;-6.314;2023-05-14T03:44:51;101754.28;;;11.79;100.00
29935;BME280;19905;53.370;-6.314;2023-05-14T03:47:19;101744.53;;;11.80;100.00
29935;BME280;19905;53.370;-6.314;2023-05-14T03:49:48;101746.31;;;11.79;100.00
29935;BME280;19905;53.370;-6.314;2023-05-14T03:52:17;101741.03;;;11.79;100.00
29935;BME280;19905;53.370;-6.314;2023-05-14T03:54:46;101743.56;;;11.81;100.00
29935;BME280;19905;53.370;-6.314;2023-05-14T03:57:16;101746.50;;;11.90;100.00
29935;BME280;19905;53.370;-6.314;2023-05-14T03:59:44;101740.06;;;11.94;100.00
29935;BME280;19905;53.370;-6.314;2023-05-14T04:02:13;101735.91;;;11.90;100.00
29935;BME280;19905;53.370;-6.314;2023-05-14T04:04:41;101737.63;;;11.91;100.00
29935;BME280;19905;53.370;-6.314;2023-05-14T04:07:10;101738.06;;;11.98;100.00
29935;BME280;19905;53.370;-6.314;2023-05-14T04:09:38;101726.31;;;12.02;100.00
29935;BME280;19905;53.370;-6.314;2023-05-14T04:12:07;101726.31;;;12.02;100.00
29935;BME280;19905;53.370;-6.314;2023-05-14T04:14:38;101728.78;;;12.05;100.00
29935;BME280;19905;53.370;-6.314;2023-05-14T04:17:06;101728.53;;;12.08;100.00
29935;BME280;19905;53.370;-6.314;2023-05-14T04:19:35;101721.69;;;12.06;100.00
29935;BME280;19905;53.370;-6.314;2023-05-14T04:22:03;101713.38;;;11.98;100.00
29935;BME280;19905;53.370;-6.314;2023-05-14T04:24:32;101712.31;;;12.00;100.00
29935;BME280;19905;53.370;-6.314;2023-05-14T04:27:01;101711.38;;;12.01;100.00
29935;BME280;19905;53.370;-6.314;2023-05-14T04:29:30;101712.22;;;12.02;100.00
29935;BME280;19905;53.370;-6.314;2023-05-14T04:32:00;101700.50;;;12.06;100.00
29935;BME280;19905;53.370;-6.314;2023-05-14T04:34:28;101709.47;;;12.03;100.00
29935;BME280;19905;53.370;-6.314;2023-05-14T04:36:57;101703.22;;;12.04;100.00
29935;BME280;19905;53.370;-6.314;2023-05-14T04:39:26;101699.53;;;12.07;100.00
29935;BME280;19905;53.370;-6.314;2023-05-14T04:41:54;101705.66;;;12.07;100.00
29935;BME280;19905;53.370;-6.314;2023-05-14T04:44:22;101705.78;;;12.06;100.00
29935;BME280;19905;53.370;-6.314;2023-05-14T04:46:52;101709.28;;;12.06;100.00
29935;BME280;19905;53.370;-6.314;2023-05-14T04:49:21;101699.34;;;12.10;100.00
29935;BME280;19905;53.370;-6.314;2023-05-14T04:51:51;101704.22;;;12.16;100.00
29935;BME280;19905;53.370;-6.314;2023-05-14T04:54:19;101702.22;;;12.19;100.00
29935;BME280;19905;53.370;-6.314;2023-05-14T04:56:49;101699.56;;;12.19;100.00
29935;BME280;19905;53.370;-6.314;2023-05-14T04:59:17;101695.97;;;12.20;100.00
29935;BME280;19905;53.370;-6.314;2023-05-14T05:01:45;101694.88;;;12.23;100.00
29935;BME280;19905;53.370;-6.314;2023-05-14T05:04:14;101688.84;;;12.21;100.00
29935;BME280;19905;53.370;-6.314;2023-05-14T05:06:44;101689.69;;;12.21;100.00
29935;BME280;19905;53.370;-6.314;2023-05-14T05:09:13;101695.84;;;12.22;100.00
29935;BME280;19905;53.370;-6.314;2023-05-14T05:11:42;101696.59;;;12.24;100.00
29935;BME280;19905;53.370;-6.314;2023-05-14T05:14:10;101701.09;;;12.09;100.00
29935;BME280;19905;53.370;-6.314;2023-05-14T05:16:39;101694.78;;;12.12;100.00
29935;BME280;19905;53.370;-6.314;2023-05-14T05:19:07;101698.72;;;12.19;100.00
29935;BME280;19905;53.370;-6.314;2023-05-14T05:21:36;101690.78;;;12.19;100.00
29935;BME280;19905;53.370;-6.314;2023-05-14T05:24:08;101685.56;;;12.17;100.00
29935;BME280;19905;53.370;-6.314;2023-05-14T05:26:37;101686.81;;;12.12;100.00
29935;BME280;19905;53.370;-6.314;2023-05-14T05:29:06;101684.91;;;12.14;100.00
29935;BME280;19905;53.370;-6.314;2023-05-14T05:31:34;101684.06;;;12.13;100.00
29935;BME280;19905;53.370;-6.314;2023-05-14T05:34:04;101683.88;;;12.16;100.00
29935;BME280;19905;53.370;-6.314;2023-05-14T05:36:32;101680.06;;;12.20;100.00
29935;BME280;19905;53.370;-6.314;2023-05-14T05:39:01;101678.25;;;12.21;100.00
29935;BME280;19905;53.370;-6.314;2023-05-14T05:41:31;101668.06;;;12.28;100.00
29935;BME280;19905;53.370;-6.314;2023-05-14T05:44:00;101667.75;;;12.32;100.00
29935;BME280;19905;53.370;-6.314;2023-05-14T05:46:28;101664.28;;;12.32;100.00
29935;BME280;19905;53.370;-6.314;2023-05-14T05:48:56;101656.13;;;12.35;100.00
29935;BME280;19905;53.370;-6.314;2023-05-14T05:51:25;101658.03;;;12.45;100.00
29935;BME280;19905;53.370;-6.314;2023-05-14T05:53:54;101660.88;;;12.55;100.00
29935;BME280;19905;53.370;-6.314;2023-05-14T05:56:22;101653.81;;;12.56;100.00
29935;BME280;19905;53.370;-6.314;2023-05-14T05:58:52;101656.97;;;12.48;100.00
29935;BME280;19905;53.370;-6.314;2023-05-14T06:01:21;101650.00;;;12.47;100.00
29935;BME280;19905;53.370;-6.314;2023-05-14T06:03:50;101642.75;;;12.49;100.00
29935;BME280;19905;53.370;-6.314;2023-05-14T06:06:18;101637.78;;;12.44;100.00
29935;BME280;19905;53.370;-6.314;2023-05-14T06:08:47;101645.72;;;12.44;100.00
29935;BME280;19905;53.370;-6.314;2023-05-14T06:11:16;101645.72;;;12.44;100.00
29935;BME280;19905;53.370;-6.314;2023-05-14T06:13:44;101651.03;;;12.44;100.00
29935;BME280;19905;53.370;-6.314;2023-05-14T06:16:14;101663.63;;;12.41;100.00
29935;BME280;19905;53.370;-6.314;2023-05-14T06:18:43;101667.44;;;12.11;100.00
29935;BME280;19905;53.370;-6.314;2023-05-14T06:21:12;101677.94;;;12.26;100.00
29935;BME280;19905;53.370;-6.314;2023-05-14T06:23:40;101663.13;;;12.36;100.00
29935;BME280;19905;53.370;-6.314;2023-05-14T06:26:09;101652.44;;;12.37;100.00
29935;BME280;19905;53.370;-6.314;2023-05-14T06:28:37;101654.31;;;12.48;100.00
29935;BME280;19905;53.370;-6.314;2023-05-14T06:31:06;101643.09;;;12.44;100.00
29935;BME280;19905;53.370;-6.314;2023-05-14T06:33:36;101634.94;;;12.48;100.00
29935;BME280;19905;53.370;-6.314;2023-05-14T06:36:06;101647.41;;;12.45;100.00
29935;BME280;19905;53.370;-6.314;2023-05-14T06:38:35;101649.66;;;12.52;100.00
29935;BME280;19905;53.370;-6.314;2023-05-14T06:41:04;101630.56;;;12.59;100.00
29935;BME280;19905;53.370;-6.314;2023-05-14T06:43:32;101623.88;;;12.66;100.00
29935;BME280;19905;53.370;-6.314;2023-05-14T06:46:01;101619.09;;;12.71;100.00
29935;BME280;19905;53.370;-6.314;2023-05-14T06:48:30;101607.97;;;12.79;100.00
29935;BME280;19905;53.370;-6.314;2023-05-14T06:51:00;101610.88;;;12.87;100.00
29935;BME280;19905;53.370;-6.314;2023-05-14T06:53:29;101606.97;;;12.93;100.00
29935;BME280;19905;53.370;-6.314;2023-05-14T06:55:57;101603.88;;;12.99;100.00
29935;BME280;19905;53.370;-6.314;2023-05-14T06:58:26;101598.13;;;13.05;100.00
29935;BME280;19905;53.370;-6.314;2023-05-14T07:00:54;101598.03;;;13.07;100.00
29935;BME280;19905;53.370;-6.314;2023-05-14T07:03:23;101593.78;;;13.04;100.00
29935;BME280;19905;53.370;-6.314;2023-05-14T07:05:51;101589.56;;;13.02;100.00
29935;BME280;19905;53.370;-6.314;2023-05-14T07:08:21;101591.13;;;13.04;100.00
29935;BME280;19905;53.370;-6.314;2023-05-14T07:10:50;101588.75;;;13.12;100.00
29935;BME280;19905;53.370;-6.314;2023-05-14T07:13:18;101587.91;;;13.12;100.00
29935;BME280;19905;53.370;-6.314;2023-05-14T07:15:46;101588.47;;;13.04;100.00
29935;BME280;19905;53.370;-6.314;2023-05-14T07:18:15;101592.94;;;13.04;100.00
29935;BME280;19905;53.370;-6.314;2023-05-14T07:20:43;101591.03;;;13.06;100.00
29935;BME280;19905;53.370;-6.314;2023-05-14T07:23:12;101598.75;;;13.09;100.00
29935;BME280;19905;53.370;-6.314;2023-05-14T07:25:41;101595.13;;;13.10;100.00
29935;BME280;19905;53.370;-6.314;2023-05-14T07:28:10;101597.78;;;13.10;100.00
29935;BME280;19905;53.370;-6.314;2023-05-14T07:30:39;101595.38;;;13.07;100.00
29935;BME280;19905;53.370;-6.314;2023-05-14T07:33:07;101600.44;;;13.10;100.00
29935;BME280;19905;53.370;-6.314;2023-05-14T07:35:35;101598.59;;;13.23;100.00
29935;BME280;19905;53.370;-6.314;2023-05-14T07:38:04;101593.00;;;13.15;100.00
29935;BME280;19905;53.370;-6.314;2023-05-14T07:40:32;101596.59;;;13.14;100.00
29935;BME280;19905;53.370;-6.314;2023-05-14T07:43:03;101589.81;;;13.22;100.00
29935;BME280;19905;53.370;-6.314;2023-05-14T07:45:31;101585.34;;;13.23;100.00
29935;BME280;19905;53.370;-6.314;2023-05-14T07:48:00;101588.00;;;13.23;100.00
29935;BME280;19905;53.370;-6.314;2023-05-14T07:50:28;101586.81;;;13.27;100.00
29935;BME280;19905;53.370;-6.314;2023-05-14T07:52:57;101583.25;;;13.39;100.00
29935;BME280;19905;53.370;-6.314;2023-05-14T07:55:25;101594.94;;;13.61;100.00
29935;BME280;19905;53.370;-6.314;2023-05-14T07:57:54;101585.94;;;13.75;100.00
29935;BME280;19905;53.370;-6.314;2023-05-14T08:00:24;101576.81;;;14.01;100.00
29935;BME280;19905;53.370;-6.314;2023-05-14T08:02:53;101574.16;;;14.01;100.00
29935;BME280;19905;53.370;-6.314;2023-05-14T08:05:22;101572.13;;;14.16;100.00
29935;BME280;19905;53.370;-6.314;2023-05-14T08:07:51;101570.56;;;14.13;100.00
29935;BME280;19905;53.370;-6.314;2023-05-14T08:10:19;101567.41;;;14.08;100.00
29935;BME280;19905;53.370;-6.314;2023-05-14T08:12:48;101569.66;;;13.90;100.00
29935;BME280;19905;53.370;-6.314;2023-05-14T08:15:17;101556.59;;;13.76;100.00
29935;BME280;19905;53.370;-6.314;2023-05-14T08:17:47;101559.03;;;13.79;100.00
29935;BME280;19905;53.370;-6.314;2023-05-14T08:20:15;101552.75;;;13.91;100.00
29935;BME280;19905;53.370;-6.314;2023-05-14T08:22:44;101547.47;;;14.14;100.00
29935;BME280;19905;53.370;-6.314;2023-05-14T08:25:13;101545.59;;;14.49;100.00
29935;BME280;19905;53.370;-6.314;2023-05-14T08:27:41;101547.84;;;14.43;100.00
29935;BME280;19905;53.370;-6.314;2023-05-14T08:30:10;101540.59;;;14.45;100.00
29935;BME280;19905;53.370;-6.314;2023-05-14T08:32:39;101549.53;;;14.33;100.00
29935;BME280;19905;53.370;-6.314;2023-05-14T08:35:10;101542.53;;;14.32;100.00
29935;BME280;19905;53.370;-6.314;2023-05-14T08:37:39;101544.00;;;14.36;100.00
29935;BME280;19905;53.370;-6.314;2023-05-14T08:40:08;101543.25;;;14.22;100.00
29935;BME280;19905;53.370;-6.314;2023-05-14T08:42:38;101539.63;;;14.12;100.00
29935;BME280;19905;53.370;-6.314;2023-05-14T08:45:12;101548.59;;;14.11;100.00
29935;BME280;19905;53.370;-6.314;2023-05-14T08:47:44;101546.16;;;14.08;100.00
29935;BME280;19905;53.370;-6.314;2023-05-14T08:50:16;101559.03;;;13.79;100.00
29935;BME280;19905;53.370;-6.314;2023-05-14T08:52:49;101567.03;;;13.55;100.00
29935;BME280;19905;53.370;-6.314;2023-05-14T08:55:18;101578.84;;;13.27;100.00
29935;BME280;19905;53.370;-6.314;2023-05-14T08:57:47;101595.03;;;13.11;100.00
29935;BME280;19905;53.370;-6.314;2023-05-14T09:00:17;101604.16;;;13.07;100.00
29935;BME280;19905;53.370;-6.314;2023-05-14T09:02:46;101612.63;;;13.12;100.00
29935;BME280;19905;53.370;-6.314;2023-05-14T09:05:18;101620.81;;;13.09;100.00
29935;BME280;19905;53.370;-6.314;2023-05-14T09:07:46;101622.69;;;12.83;100.00
29935;BME280;19905;53.370;-6.314;2023-05-14T09:10:15;101631.25;;;12.87;100.00
29935;BME280;19905;53.370;-6.314;2023-05-14T09:12:45;101632.88;;;12.77;100.00
29935;BME280;19905;53.370;-6.314;2023-05-14T09:15:13;101642.75;;;12.75;100.00
29935;BME280;19905;53.370;-6.314;2023-05-14T09:17:42;101642.25;;;12.57;100.00
29935;BME280;19905;53.370;-6.314;2023-05-14T09:20:11;101635.25;;;12.43;100.00
29935;BME280;19905;53.370;-6.314;2023-05-14T09:22:41;101638.22;;;12.38;100.00
29935;BME280;19905;53.370;-6.314;2023-05-14T09:25:10;101634.06;;;12.60;100.00
29935;BME280;19905;53.370;-6.314;2023-05-14T09:27:39;101638.72;;;12.69;100.00
29935;BME280;19905;53.370;-6.314;2023-05-14T09:30:09;101640.13;;;12.62;100.00
29935;BME280;19905;53.370;-6.314;2023-05-14T09:32:38;101637.88;;;12.68;100.00
29935;BME280;19905;53.370;-6.314;2023-05-14T09:35:13;101636.38;;;12.64;100.00
29935;BME280;19905;53.370;-6.314;2023-05-14T09:37:47;101641.66;;;12.77;100.00
29935;BME280;19905;53.370;-6.314;2023-05-14T09:40:17;101635.78;;;13.10;100.00
29935;BME280;19905;53.370;-6.314;2023-05-14T09:42:46;101642.88;;;13.10;100.00
29935;BME280;19905;53.370;-6.314;2023-05-14T09:45:15;101645.03;;;12.92;100.00
29935;BME280;19905;53.370;-6.314;2023-05-14T09:47:44;101641.16;;;13.21;100.00
29935;BME280;19905;53.370;-6.314;2023-05-14T09:50:13;101634.56;;;13.27;100.00
29935;BME280;19905;53.370;-6.314;2023-05-14T09:52:42;101635.44;;;13.52;100.00
29935;BME280;19905;53.370;-6.314;2023-05-14T09:55:12;101633.81;;;13.73;100.00
29935;BME280;19905;53.370;-6.314;2023-05-14T09:57:41;101624.03;;;13.73;100.00
29935;BME280;19905;53.370;-6.314;2023-05-14T10:00:10;101610.91;;;13.72;100.00
29935;BME280;19905;53.370;-6.314;2023-05-14T10:02:40;101607.47;;;13.59;100.00
29935;BME280;19905;53.370;-6.314;2023-05-14T10:05:11;101610.84;;;13.37;100.00
29935;BME280;19905;53.370;-6.314;2023-05-14T10:07:45;101626.78;;;13.37;100.00
29935;BME280;19905;53.370;-6.314;2023-05-14T10:10:18;101615.03;;;13.28;100.00
29935;BME280;19905;53.370;-6.314;2023-05-14T10:12:50;101626.69;;;13.38;100.00
29935;BME280;19905;53.370;-6.314;2023-05-14T10:15:26;101627.13;;;13.32;100.00
29935;BME280;19905;53.370;-6.314;2023-05-14T10:18:00;101627.13;;;13.32;100.00
29935;BME280;19905;53.370;-6.314;2023-05-14T10:20:31;101625.97;;;13.23;100.00
29935;BME280;19905;53.370;-6.314;2023-05-14T10:22:59;101624.81;;;13.28;100.00
29935;BME280;19905;53.370;-6.314;2023-05-14T10:25:30;101628.16;;;13.06;100.00
29935;BME280;19905;53.370;-6.314;2023-05-14T10:27:59;101633.16;;;12.97;100.00
29935;BME280;19905;53.370;-6.314;2023-05-14T10:30:28;101637.50;;;12.98;100.00
29935;BME280;19905;53.370;-6.314;2023-05-14T10:33:07;101639.84;;;12.90;100.00
29935;BME280;19905;53.370;-6.314;2023-05-14T10:35:57;101636.34;;;12.90;100.00
29935;BME280;19905;53.370;-6.314;2023-05-14T10:38:27;101635.06;;;12.95;100.00
29935;BME280;19905;53.370;-6.314;2023-05-14T10:41:00;101640.88;;;13.01;100.00
29935;BME280;19905;53.370;-6.314;2023-05-14T10:43:30;101642.47;;;13.03;100.00
29935;BME280;19905;53.370;-6.314;2023-05-14T10:46:03;101638.44;;;13.10;100.00
29935;BME280;19905;53.370;-6.314;2023-05-14T10:48:33;101632.09;;;13.37;100.00
29935;BME280;19905;53.370;-6.314;2023-05-14T10:51:01;101633.53;;;13.65;100.00
29935;BME280;19905;53.370;-6.314;2023-05-14T10:53:34;101621.47;;;13.96;100.00
29935;BME280;19905;53.370;-6.314;2023-05-14T10:56:06;101612.31;;;14.00;100.00
29935;BME280;19905;53.370;-6.314;2023-05-14T10:58:37;101616.06;;;13.62;100.00
29935;BME280;19905;53.370;-6.314;2023-05-14T11:01:07;101611.16;;;13.45;100.00
29935;BME280;19905;53.370;-6.314;2023-05-14T11:03:40;101605.50;;;13.50;100.00
29935;BME280;19905;53.370;-6.314;2023-05-14T11:06:10;101606.78;;;13.68;100.00
29935;BME280;19905;53.370;-6.314;2023-05-14T11:08:39;101607.78;;;13.78;100.00
29935;BME280;19905;53.370;-6.314;2023-05-14T11:11:09;101596.41;;;14.11;100.00
29935;BME280;19905;53.370;-6.314;2023-05-14T11:13:38;101595.16;;;14.04;100.00
29935;BME280;19905;53.370;-6.314;2023-05-14T11:16:08;101593.13;;;14.19;100.00
29935;BME280;19905;53.370;-6.314;2023-05-14T11:18:53;101587.94;;;14.29;100.00
29935;BME280;19905;53.370;-6.314;2023-05-14T11:21:28;101587.22;;;14.27;100.00
29935;BME280;19905;53.370;-6.314;2023-05-14T11:23:58;101597.69;;;14.06;100.00
29935;BME280;19905;53.370;-6.314;2023-05-14T11:26:30;101609.41;;;13.57;100.00
29935;BME280;19905;53.370;-6.314;2023-05-14T11:28:59;101618.44;;;13.30;100.00
29935;BME280;19905;53.370;-6.314;2023-05-14T11:31:27;101638.00;;;13.04;100.00
29935;BME280;19905;53.370;-6.314;2023-05-14T11:33:56;101642.94;;;12.84;100.00
29935;BME280;19905;53.370;-6.314;2023-05-14T11:36:25;101648.97;;;12.86;100.00
29935;BME280;19905;53.370;-6.314;2023-05-14T11:38:54;101644.56;;;12.74;100.00
29935;BME280;19905;53.370;-6.314;2023-05-14T11:41:22;101637.47;;;12.75;100.00
29935;BME280;19905;53.370;-6.314;2023-05-14T11:43:55;101640.09;;;12.75;100.00
29935;BME280;19905;53.370;-6.314;2023-05-14T11:46:24;101648.97;;;12.86;100.00
29935;BME280;19905;53.370;-6.314;2023-05-14T11:48:52;101643.59;;;12.88;100.00
29935;BME280;19905;53.370;-6.314;2023-05-14T11:51:21;101639.78;;;12.79;100.00
29935;BME280;19905;53.370;-6.314;2023-05-14T11:53:50;101641.13;;;12.85;100.00
29935;BME280;19905;53.370;-6.314;2023-05-14T11:56:20;101636.53;;;13.00;100.00
29935;BME280;19905;53.370;-6.314;2023-05-14T11:58:56;101635.16;;;13.07;100.00
29935;BME280;19905;53.370;-6.314;2023-05-14T12:01:24;101633.13;;;13.10;100.00
29935;BME280;19905;53.370;-6.314;2023-05-14T12:03:54;101632.25;;;13.22;100.00
29935;BME280;19905;53.370;-6.314;2023-05-14T12:06:29;101631.91;;;13.27;100.00
29935;BME280;19905;53.370;-6.314;2023-05-14T12:08:58;101640.31;;;13.21;100.00
29935;BME280;19905;53.370;-6.314;2023-05-14T12:11:30;101641.06;;;13.23;100.00
29935;BME280;19905;53.370;-6.314;2023-05-14T12:14:01;101646.97;;;13.39;100.00
29935;BME280;19905;53.370;-6.314;2023-05-14T12:16:39;101632.22;;;13.35;100.00
29935;BME280;19905;53.370;-6.314;2023-05-14T12:19:09;101626.56;;;13.40;100.00
29935;BME280;19905;53.370;-6.314;2023-05-14T12:21:39;101617.19;;;13.71;100.00
29935;BME280;19905;53.370;-6.314;2023-05-14T12:24:08;101601.81;;;14.10;100.00
29935;BME280;19905;53.370;-6.314;2023-05-14T12:26:37;101586.44;;;14.71;100.00
29935;BME280;19905;53.370;-6.314;2023-05-14T12:29:10;101577.06;;;14.88;100.00
29935;BME280;19905;53.370;-6.314;2023-05-14T12:31:44;101579.03;;;14.74;100.00
29935;BME280;19905;53.370;-6.314;2023-05-14T12:34:14;101582.75;;;14.38;100.00
29935;BME280;19905;53.370;-6.314;2023-05-14T12:36:43;101602.28;;;14.04;100.00
29935;BME280;19905;53.370;-6.314;2023-05-14T12:39:12;101610.41;;;14.02;100.00
29935;BME280;19905;53.370;-6.314;2023-05-14T12:41:40;101597.38;;;14.33;100.00